createdAt,value
2018-07-11T00:00:22.991Z,1003.8
2018-07-11T00:01:24.377Z,1003.8
2018-07-11T00:02:25.776Z,1003.8
2018-07-11T00:03:27.164Z,1003.8
2018-07-11T00:04:28.552Z,1003.9
2018-07-11T00:05:29.947Z,1003.9
2018-07-11T00:06:31.336Z,1003.9
2018-07-11T00:07:32.729Z,1003.8
2018-07-11T00:08:34.118Z,1003.8
2018-07-11T00:09:35.510Z,1003.8
2018-07-11T00:10:36.899Z,1003.8
2018-07-11T00:11:38.292Z,1003.8
2018-07-11T00:12:39.679Z,1003.9
2018-07-11T00:13:41.069Z,1003.8
2018-07-11T00:14:42.465Z,1003.9
2018-07-11T00:15:43.856Z,1003.9
2018-07-11T00:16:45.269Z,1003.8
2018-07-11T00:17:46.651Z,1003.8
2018-07-11T00:18:48.042Z,1003.8
2018-07-11T00:19:49.442Z,1003.8
2018-07-11T00:20:50.827Z,1003.8
2018-07-11T00:21:52.217Z,1003.8
2018-07-11T00:22:53.606Z,1003.8
2018-07-11T00:23:55.010Z,1003.8
2018-07-11T00:24:56.391Z,1003.8
2018-07-11T00:25:57.780Z,1003.8
2018-07-11T00:26:59.169Z,1003.8
2018-07-11T00:28:00.568Z,1003.8
2018-07-11T00:29:01.957Z,1003.8
2018-07-11T00:30:03.349Z,1003.8
2018-07-11T00:31:04.742Z,1003.8
2018-07-11T00:32:06.155Z,1003.8
2018-07-11T00:33:07.565Z,1003.8
2018-07-11T00:34:08.953Z,1003.8
2018-07-11T00:35:10.343Z,1003.8
2018-07-11T00:36:11.819Z,1003.8
2018-07-11T00:37:13.269Z,1003.8
2018-07-11T00:38:14.578Z,1003.9
2018-07-11T00:39:15.969Z,1003.9
2018-07-11T00:40:17.359Z,1003.8
2018-07-11T00:41:18.747Z,1003.9
2018-07-11T00:42:20.140Z,1003.9
2018-07-11T00:43:21.531Z,1003.9
2018-07-11T00:44:22.917Z,1003.9
2018-07-11T00:45:24.307Z,1003.9
2018-07-11T00:46:25.697Z,1003.8
2018-07-11T00:47:27.089Z,1003.9
2018-07-11T00:48:28.478Z,1003.8
2018-07-11T00:49:29.868Z,1003.8
2018-07-11T00:50:31.260Z,1003.8
2018-07-11T00:51:32.653Z,1003.8
2018-07-11T00:52:34.047Z,1003.8
2018-07-11T00:53:35.437Z,1003.8
2018-07-11T00:54:36.856Z,1003.8
2018-07-11T00:55:38.248Z,1003.8
2018-07-11T00:56:39.641Z,1003.8
2018-07-11T00:57:41.030Z,1003.8
2018-07-11T00:58:42.426Z,1003.7
2018-07-11T00:59:43.822Z,1003.8
2018-07-11T01:00:45.207Z,1003.8
2018-07-11T01:01:46.598Z,1003.8
2018-07-11T01:02:47.993Z,1003.8
2018-07-11T01:03:49.379Z,1003.8
2018-07-11T01:04:50.769Z,1003.8
2018-07-11T01:05:52.161Z,1003.9
2018-07-11T01:06:53.552Z,1003.8
2018-07-11T01:07:54.940Z,1003.9
2018-07-11T01:08:56.328Z,1003.8
2018-07-11T01:09:57.721Z,1003.8
2018-07-11T01:10:59.103Z,1003.8
2018-07-11T01:12:00.492Z,1003.8
2018-07-11T01:13:01.884Z,1003.8
2018-07-11T01:14:03.277Z,1003.7
2018-07-11T01:15:04.666Z,1003.8
2018-07-11T01:16:06.060Z,1003.7
2018-07-11T01:17:07.463Z,1003.7
2018-07-11T01:18:08.854Z,1003.7
2018-07-11T01:19:10.246Z,1003.8
2018-07-11T01:20:11.638Z,1003.8
2018-07-11T01:21:13.032Z,1003.8
2018-07-11T01:22:14.428Z,1003.7
2018-07-11T01:23:15.811Z,1003.8
2018-07-11T01:24:17.201Z,1003.8
2018-07-11T01:25:18.587Z,1003.8
2018-07-11T01:26:19.978Z,1003.8
2018-07-11T01:27:21.370Z,1003.8
2018-07-11T01:28:22.757Z,1003.8
2018-07-11T01:29:24.149Z,1003.8
2018-07-11T01:30:25.541Z,1003.8
2018-07-11T01:31:26.937Z,1003.8
2018-07-11T01:32:28.327Z,1003.7
2018-07-11T01:33:29.724Z,1003.7
2018-07-11T01:34:31.117Z,1003.8
2018-07-11T01:35:32.512Z,1003.8
2018-07-11T01:36:33.904Z,1003.8
2018-07-11T01:37:35.297Z,1003.8
2018-07-11T01:38:36.684Z,1003.8
2018-07-11T01:39:38.074Z,1003.8
2018-07-11T01:40:39.466Z,1003.8
2018-07-11T01:41:40.854Z,1003.8
2018-07-11T01:42:42.248Z,1003.8
2018-07-11T01:43:43.630Z,1003.8
2018-07-11T01:44:45.025Z,1003.8
2018-07-11T01:45:46.417Z,1003.8
2018-07-11T01:46:47.806Z,1003.9
2018-07-11T01:47:49.193Z,1003.8
2018-07-11T01:48:50.586Z,1003.8
2018-07-11T01:49:51.978Z,1003.8
2018-07-11T01:50:53.366Z,1003.9
2018-07-11T01:51:54.754Z,1003.9
2018-07-11T01:52:56.141Z,1003.9
2018-07-11T01:53:57.536Z,1003.9
2018-07-11T01:54:58.928Z,1003.9
2018-07-11T01:56:00.321Z,1004.0
2018-07-11T01:57:01.712Z,1003.9
2018-07-11T01:58:03.100Z,1003.9
2018-07-11T01:59:04.492Z,1003.9
2018-07-11T02:00:05.880Z,1004.0
2018-07-11T02:01:07.271Z,1003.9
2018-07-11T02:02:08.755Z,1004.0
2018-07-11T02:03:10.140Z,1004.0
2018-07-11T02:04:11.543Z,1004.0
2018-07-11T02:05:12.933Z,1004.0
2018-07-11T02:06:14.323Z,1004.0
2018-07-11T02:07:15.711Z,1004.0
2018-07-11T02:08:17.101Z,1004.0
2018-07-11T02:09:18.494Z,1004.0
2018-07-11T02:10:19.890Z,1004.0
2018-07-11T02:11:21.283Z,1004.0
2018-07-11T02:12:22.670Z,1004.0
2018-07-11T02:13:24.060Z,1004.0
2018-07-11T02:14:25.453Z,1004.0
2018-07-11T02:15:26.844Z,1003.9
2018-07-11T02:16:28.234Z,1004.0
2018-07-11T02:17:29.622Z,1004.0
2018-07-11T02:18:31.016Z,1004.0
2018-07-11T02:19:32.399Z,1004.0
2018-07-11T02:20:33.787Z,1004.0
2018-07-11T02:21:35.176Z,1004.1
2018-07-11T02:22:36.568Z,1004.1
2018-07-11T02:23:37.959Z,1004.1
2018-07-11T02:24:39.351Z,1004.1
2018-07-11T02:25:40.741Z,1004.1
2018-07-11T02:26:42.128Z,1004.1
2018-07-11T02:27:43.515Z,1004.1
2018-07-11T02:28:44.907Z,1004.1
2018-07-11T02:29:46.299Z,1004.1
2018-07-11T02:30:47.686Z,1004.1
2018-07-11T02:31:49.075Z,1004.1
2018-07-11T02:32:50.467Z,1004.1
2018-07-11T02:33:51.863Z,1004.1
2018-07-11T02:34:53.249Z,1004.1
2018-07-11T02:35:54.641Z,1004.1
2018-07-11T02:36:56.027Z,1004.1
2018-07-11T02:37:57.416Z,1004.1
2018-07-11T02:38:58.806Z,1004.1
2018-07-11T02:40:00.201Z,1004.1
2018-07-11T02:41:01.588Z,1004.1
2018-07-11T02:42:02.976Z,1004.1
2018-07-11T02:43:04.370Z,1004.2
2018-07-11T02:44:05.756Z,1004.1
2018-07-11T02:45:07.149Z,1004.2
2018-07-11T02:46:08.538Z,1004.2
2018-07-11T02:47:09.948Z,1004.2
2018-07-11T02:48:11.340Z,1004.2
2018-07-11T02:49:12.755Z,1004.2
2018-07-11T02:50:14.141Z,1004.2
2018-07-11T02:51:15.528Z,1004.2
2018-07-11T02:52:16.916Z,1004.2
2018-07-11T02:53:18.312Z,1004.2
2018-07-11T02:54:19.695Z,1004.2
2018-07-11T02:55:21.089Z,1004.2
2018-07-11T02:56:22.477Z,1004.2
2018-07-11T02:57:23.864Z,1004.2
2018-07-11T02:58:25.258Z,1004.3
2018-07-11T02:59:26.648Z,1004.2
2018-07-11T03:00:28.039Z,1004.3
2018-07-11T03:01:29.439Z,1004.3
2018-07-11T03:02:30.819Z,1004.3
2018-07-11T03:03:32.208Z,1004.3
2018-07-11T03:04:33.601Z,1004.3
2018-07-11T03:05:34.991Z,1004.3
2018-07-11T03:06:36.379Z,1004.2
2018-07-11T03:07:37.769Z,1004.2
2018-07-11T03:08:39.160Z,1004.2
2018-07-11T03:09:40.560Z,1004.3
2018-07-11T03:10:41.943Z,1004.3
2018-07-11T03:11:43.339Z,1004.3
2018-07-11T03:12:44.723Z,1004.3
2018-07-11T03:13:46.114Z,1004.3
2018-07-11T03:14:47.502Z,1004.3
2018-07-11T03:15:48.895Z,1004.3
2018-07-11T03:16:50.282Z,1004.3
2018-07-11T03:17:51.670Z,1004.3
2018-07-11T03:18:53.061Z,1004.2
2018-07-11T03:19:54.451Z,1004.3
2018-07-11T03:20:55.844Z,1004.2
2018-07-11T03:21:57.237Z,1004.3
2018-07-11T03:22:58.631Z,1004.3
2018-07-11T03:24:00.022Z,1004.3
2018-07-11T03:25:01.419Z,1004.2
2018-07-11T03:26:02.799Z,1004.2
2018-07-11T03:27:04.188Z,1004.2
2018-07-11T03:28:05.576Z,1004.2
2018-07-11T03:29:06.969Z,1004.2
2018-07-11T03:30:08.362Z,1004.2
2018-07-11T03:31:09.801Z,1004.2
2018-07-11T03:32:11.197Z,1004.2
2018-07-11T03:33:12.589Z,1004.1
2018-07-11T03:34:13.980Z,1004.2
2018-07-11T03:35:15.373Z,1004.2
2018-07-11T03:36:16.764Z,1004.2
2018-07-11T03:37:18.154Z,1004.2
2018-07-11T03:38:19.547Z,1004.1
2018-07-11T03:39:20.937Z,1004.1
2018-07-11T03:40:22.331Z,1004.1
2018-07-11T03:41:23.719Z,1004.1
2018-07-11T03:42:25.113Z,1004.1
2018-07-11T03:43:26.505Z,1004.1
2018-07-11T03:44:27.896Z,1004.1
2018-07-11T03:45:29.291Z,1004.1
2018-07-11T03:46:30.680Z,1004.2
2018-07-11T03:47:32.072Z,1004.2
2018-07-11T03:48:33.463Z,1004.2
2018-07-11T03:49:34.857Z,1004.2
2018-07-11T03:50:36.252Z,1004.2
2018-07-11T03:51:37.646Z,1004.2
2018-07-11T03:52:39.037Z,1004.2
2018-07-11T03:53:40.485Z,1004.2
2018-07-11T03:54:41.822Z,1004.2
2018-07-11T03:55:43.272Z,1004.2
2018-07-11T03:56:44.664Z,1004.2
2018-07-11T03:57:46.060Z,1004.1
2018-07-11T03:58:47.492Z,1004.1
2018-07-11T03:59:48.883Z,1004.1
2018-07-11T04:00:50.273Z,1004.2
2018-07-11T04:01:51.668Z,1004.2
2018-07-11T04:02:53.055Z,1004.2
2018-07-11T04:03:54.450Z,1004.2
2018-07-11T04:04:55.941Z,1004.2
2018-07-11T04:05:57.236Z,1004.2
2018-07-11T04:06:58.649Z,1004.2
2018-07-11T04:08:00.040Z,1004.2
2018-07-11T04:09:01.435Z,1004.2
2018-07-11T04:10:02.826Z,1004.2
2018-07-11T04:11:04.218Z,1004.2
2018-07-11T04:12:05.665Z,1004.2
2018-07-11T04:13:07.434Z,1004.2
2018-07-11T04:14:08.785Z,1004.2
2018-07-11T04:15:10.175Z,1004.3
2018-07-11T04:16:11.601Z,1004.3
2018-07-11T04:17:12.994Z,1004.3
2018-07-11T04:18:14.390Z,1004.3
2018-07-11T04:19:15.784Z,1004.3
2018-07-11T04:20:17.177Z,1004.4
2018-07-11T04:21:18.569Z,1004.3
2018-07-11T04:22:19.961Z,1004.4
2018-07-11T04:23:21.357Z,1004.4
2018-07-11T04:24:22.747Z,1004.3
2018-07-11T04:25:24.144Z,1004.3
2018-07-11T04:26:25.538Z,1004.4
2018-07-11T04:27:26.938Z,1004.4
2018-07-11T04:28:28.331Z,1004.5
2018-07-11T04:29:29.731Z,1004.5
2018-07-11T04:30:31.121Z,1004.5
2018-07-11T04:31:32.515Z,1004.5
2018-07-11T04:32:33.910Z,1004.5
2018-07-11T04:33:35.305Z,1004.5
2018-07-11T04:34:36.719Z,1004.5
2018-07-11T04:35:38.090Z,1004.5
2018-07-11T04:36:39.805Z,1004.5
2018-07-11T04:37:41.196Z,1004.5
2018-07-11T04:38:42.597Z,1004.5
2018-07-11T04:39:44.781Z,1004.5
2018-07-11T04:40:46.169Z,1004.5
2018-07-11T04:41:47.562Z,1004.5
2018-07-11T04:42:48.954Z,1004.5
2018-07-11T04:43:50.346Z,1004.5
2018-07-11T04:44:51.738Z,1004.5
2018-07-11T04:45:53.128Z,1004.5
2018-07-11T04:46:54.525Z,1004.6
2018-07-11T04:47:55.917Z,1004.5
2018-07-11T04:48:57.319Z,1004.5
2018-07-11T04:49:58.721Z,1004.5
2018-07-11T04:51:00.117Z,1004.5
2018-07-11T04:52:01.507Z,1004.5
2018-07-11T04:53:02.906Z,1004.6
2018-07-11T04:54:04.301Z,1004.5
2018-07-11T04:55:05.696Z,1004.5
2018-07-11T04:56:07.095Z,1004.6
2018-07-11T04:57:08.485Z,1004.5
2018-07-11T04:58:09.879Z,1004.6
2018-07-11T04:59:11.285Z,1004.6
2018-07-11T05:00:12.679Z,1004.6
2018-07-11T05:01:14.075Z,1004.6
2018-07-11T05:02:15.466Z,1004.6
2018-07-11T05:03:16.865Z,1004.6
2018-07-11T05:04:18.258Z,1004.6
2018-07-11T05:05:19.652Z,1004.6
2018-07-11T05:06:21.049Z,1004.6
2018-07-11T05:07:22.443Z,1004.6
2018-07-11T05:08:23.852Z,1004.6
2018-07-11T05:09:25.273Z,1004.6
2018-07-11T05:10:26.642Z,1004.7
2018-07-11T05:11:28.036Z,1004.7
2018-07-11T05:12:29.428Z,1004.6
2018-07-11T05:13:30.950Z,1004.7
2018-07-11T05:14:32.350Z,1004.7
2018-07-11T05:15:33.748Z,1004.7
2018-07-11T05:16:35.147Z,1004.7
2018-07-11T05:17:36.789Z,1004.7
2018-07-11T05:18:38.185Z,1004.7
2018-07-11T05:19:39.578Z,1004.7
2018-07-11T05:20:45.542Z,1004.7
2018-07-11T05:21:46.950Z,1004.7
2018-07-11T05:22:48.346Z,1004.7
2018-07-11T05:23:49.738Z,1004.8
2018-07-11T05:24:51.137Z,1004.8
2018-07-11T05:25:52.524Z,1004.8
2018-07-11T05:26:53.915Z,1004.8
2018-07-11T05:27:55.310Z,1004.7
2018-07-11T05:28:56.703Z,1004.8
2018-07-11T05:29:58.099Z,1004.8
2018-07-11T05:30:59.492Z,1004.9
2018-07-11T05:32:00.889Z,1004.8
2018-07-11T05:33:02.279Z,1004.8
2018-07-11T05:34:03.715Z,1004.8
2018-07-11T05:35:05.148Z,1004.8
2018-07-11T05:36:06.544Z,1004.8
2018-07-11T05:37:07.950Z,1004.8
2018-07-11T05:38:09.347Z,1004.7
2018-07-11T05:39:10.782Z,1004.8
2018-07-11T05:40:12.138Z,1004.8
2018-07-11T05:41:13.579Z,1004.8
2018-07-11T05:42:14.927Z,1004.8
2018-07-11T05:43:16.424Z,1004.8
2018-07-11T05:44:17.819Z,1004.8
2018-07-11T05:45:19.220Z,1004.8
2018-07-11T05:46:20.616Z,1004.8
2018-07-11T05:47:22.008Z,1004.8
2018-07-11T05:48:24.288Z,1004.8
2018-07-11T05:49:25.515Z,1004.8
2018-07-11T05:50:26.961Z,1004.8
2018-07-11T05:51:28.354Z,1004.8
2018-07-11T05:52:29.751Z,1004.8
2018-07-11T05:53:31.147Z,1004.9
2018-07-11T05:54:32.544Z,1004.8
2018-07-11T05:55:33.937Z,1004.8
2018-07-11T05:56:35.791Z,1004.9
2018-07-11T05:57:37.180Z,1004.9
2018-07-11T05:58:38.584Z,1004.9
2018-07-11T05:59:39.979Z,1004.9
2018-07-11T06:00:41.399Z,1004.9
2018-07-11T06:01:42.792Z,1005.0
2018-07-11T06:02:44.241Z,1004.9
2018-07-11T06:03:45.605Z,1004.9
2018-07-11T06:04:46.999Z,1004.9
2018-07-11T06:05:48.395Z,1004.9
2018-07-11T06:06:49.790Z,1004.9
2018-07-11T06:07:51.192Z,1004.9
2018-07-11T06:08:52.580Z,1004.9
2018-07-11T06:09:53.974Z,1004.9
2018-07-11T06:10:55.369Z,1004.9
2018-07-11T06:11:56.774Z,1005.0
2018-07-11T06:12:58.164Z,1005.0
2018-07-11T06:13:59.561Z,1005.0
2018-07-11T06:15:00.959Z,1005.0
2018-07-11T06:16:02.353Z,1005.0
2018-07-11T06:17:03.754Z,1005.0
2018-07-11T06:18:05.149Z,1005.0
2018-07-11T06:19:06.577Z,1005.0
2018-07-11T06:20:07.993Z,1005.0
2018-07-11T06:21:09.389Z,1005.0
2018-07-11T06:22:10.786Z,1005.0
2018-07-11T06:23:12.193Z,1005.0
2018-07-11T06:24:13.585Z,1005.1
2018-07-11T06:25:14.977Z,1005.1
2018-07-11T06:26:16.380Z,1005.1
2018-07-11T06:27:17.778Z,1005.1
2018-07-11T06:28:19.174Z,1005.1
2018-07-11T06:29:20.568Z,1005.1
2018-07-11T06:30:21.966Z,1005.2
2018-07-11T06:31:23.358Z,1005.2
2018-07-11T06:32:24.751Z,1005.2
2018-07-11T06:33:26.171Z,1005.2
2018-07-11T06:34:27.561Z,1005.1
2018-07-11T06:35:28.957Z,1005.2
2018-07-11T06:36:30.355Z,1005.2
2018-07-11T06:37:31.753Z,1005.2
2018-07-11T06:38:33.153Z,1005.2
2018-07-11T06:39:34.540Z,1005.3
2018-07-11T06:40:35.933Z,1005.2
2018-07-11T06:41:37.332Z,1005.3
2018-07-11T06:42:38.721Z,1005.3
2018-07-11T06:43:40.115Z,1005.3
2018-07-11T06:44:41.526Z,1005.3
2018-07-11T06:45:42.911Z,1005.3
2018-07-11T06:46:44.306Z,1005.3
2018-07-11T06:47:45.698Z,1005.3
2018-07-11T06:48:47.094Z,1005.3
2018-07-11T06:49:48.493Z,1005.4
2018-07-11T06:50:49.883Z,1005.3
2018-07-11T06:51:51.294Z,1005.4
2018-07-11T06:52:52.694Z,1005.4
2018-07-11T06:53:54.085Z,1005.4
2018-07-11T06:54:55.482Z,1005.4
2018-07-11T06:55:56.925Z,1005.4
2018-07-11T06:56:58.276Z,1005.4
2018-07-11T06:57:59.671Z,1005.4
2018-07-11T06:59:01.068Z,1005.4
2018-07-11T07:00:02.466Z,1005.4
2018-07-11T07:01:03.863Z,1005.3
2018-07-11T07:02:05.261Z,1005.4
2018-07-11T07:03:06.660Z,1005.4
2018-07-11T07:04:08.067Z,1005.4
2018-07-11T07:05:09.493Z,1005.4
2018-07-11T07:06:10.887Z,1005.4
2018-07-11T07:07:12.282Z,1005.4
2018-07-11T07:08:13.677Z,1005.4
2018-07-11T07:09:15.080Z,1005.4
2018-07-11T07:10:16.471Z,1005.4
2018-07-11T07:11:17.873Z,1005.5
2018-07-11T07:12:19.277Z,1005.4
2018-07-11T07:13:20.673Z,1005.5
2018-07-11T07:14:22.067Z,1005.5
2018-07-11T07:15:23.463Z,1005.4
2018-07-11T07:16:24.871Z,1005.5
2018-07-11T07:17:26.259Z,1005.4
2018-07-11T07:18:27.654Z,1005.4
2018-07-11T07:19:29.052Z,1005.4
2018-07-11T07:20:30.448Z,1005.4
2018-07-11T07:21:31.848Z,1005.4
2018-07-11T07:22:33.253Z,1005.4
2018-07-11T07:23:34.639Z,1005.4
2018-07-11T07:24:36.036Z,1005.3
2018-07-11T07:25:37.447Z,1005.4
2018-07-11T07:26:38.845Z,1005.3
2018-07-11T07:27:40.242Z,1005.3
2018-07-11T07:28:41.635Z,1005.3
2018-07-11T07:29:43.034Z,1005.3
2018-07-11T07:30:44.432Z,1005.2
2018-07-11T07:31:45.832Z,1005.2
2018-07-11T07:32:47.230Z,1005.2
2018-07-11T07:33:48.633Z,1005.2
2018-07-11T07:34:50.085Z,1005.2
2018-07-11T07:35:51.418Z,1005.3
2018-07-11T07:36:52.871Z,1005.2
2018-07-11T07:37:54.217Z,1005.2
2018-07-11T07:38:55.609Z,1005.3
2018-07-11T07:39:57.007Z,1005.3
2018-07-11T07:40:58.414Z,1005.2
2018-07-11T07:41:59.816Z,1005.2
2018-07-11T07:43:01.257Z,1005.2
2018-07-11T07:44:02.612Z,1005.2
2018-07-11T07:45:04.007Z,1005.2
2018-07-11T07:46:05.405Z,1005.2
2018-07-11T07:47:06.863Z,1005.1
2018-07-11T07:48:08.202Z,1005.1
2018-07-11T07:49:09.599Z,1005.1
2018-07-11T07:50:11.004Z,1005.1
2018-07-11T07:51:12.400Z,1005.1
2018-07-11T07:52:13.798Z,1005.1
2018-07-11T07:53:15.193Z,1005.1
2018-07-11T07:54:16.597Z,1005.1
2018-07-11T07:55:18.010Z,1005.1
2018-07-11T07:56:19.411Z,1005.1
2018-07-11T07:57:20.808Z,1005.1
2018-07-11T07:58:22.201Z,1005.1
2018-07-11T07:59:23.598Z,1005.1
2018-07-11T08:00:25.055Z,1005.1
2018-07-11T08:01:26.393Z,1005.1
2018-07-11T08:02:27.796Z,1005.1
2018-07-11T08:03:29.189Z,1005.1
2018-07-11T08:04:30.584Z,1005.0
2018-07-11T08:05:31.985Z,1005.0
2018-07-11T08:06:33.383Z,1005.1
2018-07-11T08:07:34.785Z,1005.1
2018-07-11T08:08:36.184Z,1005.1
2018-07-11T08:09:37.584Z,1005.1
2018-07-11T08:10:38.985Z,1005.1
2018-07-11T08:11:40.383Z,1005.2
2018-07-11T08:12:41.788Z,1005.1
2018-07-11T08:13:43.177Z,1005.1
2018-07-11T08:14:44.574Z,1005.1
2018-07-11T08:15:45.971Z,1005.1
2018-07-11T08:16:47.377Z,1005.1
2018-07-11T08:17:48.773Z,1005.1
2018-07-11T08:18:50.170Z,1005.1
2018-07-11T08:19:51.569Z,1005.1
2018-07-11T08:20:52.964Z,1005.1
2018-07-11T08:21:54.365Z,1005.1
2018-07-11T08:22:55.776Z,1005.1
2018-07-11T08:23:57.182Z,1005.1
2018-07-11T08:24:58.576Z,1005.1
2018-07-11T08:25:59.975Z,1005.1
2018-07-11T08:27:01.439Z,1005.1
2018-07-11T08:28:02.768Z,1005.2
2018-07-11T08:29:04.163Z,1005.1
2018-07-11T08:30:05.569Z,1005.2
2018-07-11T08:31:06.973Z,1005.2
2018-07-11T08:32:08.370Z,1005.1
2018-07-11T08:33:09.764Z,1005.2
2018-07-11T08:34:11.266Z,1005.2
2018-07-11T08:35:12.738Z,1005.2
2018-07-11T08:36:14.054Z,1005.1
2018-07-11T08:37:15.452Z,1005.2
2018-07-11T08:38:16.852Z,1005.1
2018-07-11T08:39:18.250Z,1005.2
2018-07-11T08:40:19.647Z,1005.2
2018-07-11T08:41:21.045Z,1005.2
2018-07-11T08:42:22.442Z,1005.2
2018-07-11T08:43:23.840Z,1005.2
2018-07-11T08:44:25.241Z,1005.1
2018-07-11T08:45:26.640Z,1005.1
2018-07-11T08:46:28.037Z,1005.2
2018-07-11T08:47:29.435Z,1005.1
2018-07-11T08:48:30.833Z,1005.1
2018-07-11T08:49:32.231Z,1005.1
2018-07-11T08:50:33.634Z,1005.1
2018-07-11T08:51:35.033Z,1005.1
2018-07-11T08:52:36.516Z,1005.1
2018-07-11T08:53:37.912Z,1005.1
2018-07-11T08:54:39.312Z,1005.1
2018-07-11T08:55:40.714Z,1005.1
2018-07-11T08:56:42.112Z,1005.1
2018-07-11T08:57:43.514Z,1005.1
2018-07-11T08:58:44.914Z,1005.1
2018-07-11T08:59:46.313Z,1005.1
2018-07-11T09:00:47.709Z,1005.1
2018-07-11T09:01:49.107Z,1005.1
2018-07-11T09:02:50.579Z,1005.1
2018-07-11T09:03:51.911Z,1005.1
2018-07-11T09:04:53.317Z,1005.1
2018-07-11T09:05:54.721Z,1005.1
2018-07-11T09:06:56.125Z,1005.0
2018-07-11T09:07:57.521Z,1005.0
2018-07-11T09:08:58.918Z,1005.0
2018-07-11T09:10:00.318Z,1005.0
2018-07-11T09:11:01.718Z,1005.0
2018-07-11T09:12:03.131Z,1004.9
2018-07-11T09:13:04.530Z,1005.0
2018-07-11T09:14:05.932Z,1005.0
2018-07-11T09:15:07.343Z,1004.9
2018-07-11T09:16:08.739Z,1004.9
2018-07-11T09:17:10.202Z,1004.9
2018-07-11T09:18:11.608Z,1005.0
2018-07-11T09:19:13.011Z,1004.9
2018-07-11T09:20:14.408Z,1004.9
2018-07-11T09:21:15.803Z,1005.0
2018-07-11T09:22:17.201Z,1005.0
2018-07-11T09:23:18.596Z,1005.0
2018-07-11T09:24:20.029Z,1005.0
2018-07-11T09:25:21.395Z,1005.1
2018-07-11T09:26:22.799Z,1005.0
2018-07-11T09:27:24.206Z,1004.9
2018-07-11T09:28:25.608Z,1004.9
2018-07-11T09:29:27.007Z,1004.9
2018-07-11T09:30:28.411Z,1004.9
2018-07-11T09:31:29.810Z,1004.9
2018-07-11T09:32:31.204Z,1005.0
2018-07-11T09:33:32.613Z,1005.0
2018-07-11T09:34:34.759Z,1004.9
2018-07-11T09:35:36.205Z,1005.0
2018-07-11T09:36:37.603Z,1005.0
2018-07-11T09:37:39.064Z,1005.0
2018-07-11T09:38:40.486Z,1005.0
2018-07-11T09:39:41.884Z,1004.9
2018-07-11T09:40:43.319Z,1004.9
2018-07-11T09:41:44.720Z,1004.9
2018-07-11T09:42:46.119Z,1004.9
2018-07-11T09:43:47.600Z,1004.9
2018-07-11T09:44:49.017Z,1004.9
2018-07-11T09:45:50.413Z,1004.9
2018-07-11T09:46:51.812Z,1004.9
2018-07-11T09:47:53.217Z,1005.0
2018-07-11T09:48:54.615Z,1004.9
2018-07-11T09:49:56.016Z,1004.9
2018-07-11T09:50:57.414Z,1004.8
2018-07-11T09:51:58.811Z,1004.9
2018-07-11T09:53:00.216Z,1004.8
2018-07-11T09:54:01.621Z,1004.8
2018-07-11T09:55:03.023Z,1004.8
2018-07-11T09:56:04.426Z,1004.7
2018-07-11T09:57:05.826Z,1004.7
2018-07-11T09:58:07.224Z,1004.8
2018-07-11T09:59:08.650Z,1004.8
2018-07-11T10:00:10.049Z,1004.8
2018-07-11T10:01:11.454Z,1004.8
2018-07-11T10:02:12.855Z,1004.7
2018-07-11T10:03:14.257Z,1004.8
2018-07-11T10:04:15.658Z,1004.8
2018-07-11T10:05:17.117Z,1004.8
2018-07-11T10:06:18.456Z,1004.8
2018-07-11T10:07:19.865Z,1004.7
2018-07-11T10:08:21.271Z,1004.7
2018-07-11T10:09:22.674Z,1004.7
2018-07-11T10:10:24.079Z,1004.8
2018-07-11T10:11:25.485Z,1004.8
2018-07-11T10:12:26.938Z,1004.7
2018-07-11T10:13:28.303Z,1004.7
2018-07-11T10:14:29.698Z,1004.7
2018-07-11T10:15:31.097Z,1004.7
2018-07-11T10:16:32.500Z,1004.7
2018-07-11T10:17:33.900Z,1004.7
2018-07-11T10:18:35.302Z,1004.7
2018-07-11T10:19:36.701Z,1004.7
2018-07-11T10:20:38.096Z,1004.7
2018-07-11T10:21:39.563Z,1004.7
2018-07-11T10:22:40.902Z,1004.7
2018-07-11T10:23:42.300Z,1004.6
2018-07-11T10:24:43.704Z,1004.7
2018-07-11T10:25:45.104Z,1004.7
2018-07-11T10:26:46.504Z,1004.7
2018-07-11T10:27:47.902Z,1004.7
2018-07-11T10:28:49.303Z,1004.7
2018-07-11T10:29:50.700Z,1004.7
2018-07-11T10:30:52.099Z,1004.7
2018-07-11T10:31:53.510Z,1004.7
2018-07-11T10:32:54.906Z,1004.7
2018-07-11T10:33:56.315Z,1004.6
2018-07-11T10:34:57.711Z,1004.6
2018-07-11T10:35:59.119Z,1004.6
2018-07-11T10:37:00.517Z,1004.6
2018-07-11T10:38:01.921Z,1004.6
2018-07-11T10:39:03.331Z,1004.6
2018-07-11T10:40:04.725Z,1004.6
2018-07-11T10:41:06.122Z,1004.6
2018-07-11T10:42:07.519Z,1004.5
2018-07-11T10:43:08.937Z,1004.6
2018-07-11T10:44:10.346Z,1004.6
2018-07-11T10:45:11.747Z,1004.6
2018-07-11T10:46:13.148Z,1004.6
2018-07-11T10:47:14.553Z,1004.6
2018-07-11T10:48:15.951Z,1004.6
2018-07-11T10:49:17.353Z,1004.5
2018-07-11T10:50:18.758Z,1004.5
2018-07-11T10:51:20.160Z,1004.5
2018-07-11T10:52:21.558Z,1004.5
2018-07-11T10:53:22.967Z,1004.5
2018-07-11T10:54:24.365Z,1004.5
2018-07-11T10:55:25.766Z,1004.5
2018-07-11T10:56:27.169Z,1004.5
2018-07-11T10:57:28.610Z,1004.5
2018-07-11T10:58:29.970Z,1004.5
2018-07-11T10:59:31.372Z,1004.5
2018-07-11T11:00:36.661Z,1004.4
2018-07-11T11:01:34.299Z,1004.4
2018-07-11T11:02:35.614Z,1004.4
2018-07-11T11:03:36.991Z,1004.5
2018-07-11T11:04:38.413Z,1004.4
2018-07-11T11:05:39.821Z,1004.4
2018-07-11T11:06:41.222Z,1004.4
2018-07-11T11:07:42.625Z,1004.4
2018-07-11T11:08:44.028Z,1004.4
2018-07-11T11:09:45.427Z,1004.4
2018-07-11T11:10:46.825Z,1004.4
2018-07-11T11:11:48.226Z,1004.4
2018-07-11T11:12:49.631Z,1004.4
2018-07-11T11:13:51.033Z,1004.4
2018-07-11T11:14:52.438Z,1004.4
2018-07-11T11:15:53.842Z,1004.3
2018-07-11T11:16:55.246Z,1004.3
2018-07-11T11:17:56.644Z,1004.3
2018-07-11T11:18:58.111Z,1004.3
2018-07-11T11:19:59.542Z,1004.3
2018-07-11T11:21:00.947Z,1004.2
2018-07-11T11:22:02.359Z,1004.2
2018-07-11T11:23:03.766Z,1004.2
2018-07-11T11:24:05.169Z,1004.3
2018-07-11T11:25:06.571Z,1004.3
2018-07-11T11:26:07.984Z,1004.4
2018-07-11T11:27:09.433Z,1004.3
2018-07-11T11:28:10.837Z,1004.3
2018-07-11T11:29:12.243Z,1004.3
2018-07-11T11:30:13.649Z,1004.2
2018-07-11T11:31:15.058Z,1004.2
2018-07-11T11:32:16.459Z,1004.1
2018-07-11T11:33:17.871Z,1004.1
2018-07-11T11:34:19.267Z,1004.2
2018-07-11T11:35:20.683Z,1004.1
2018-07-11T11:36:22.090Z,1004.2
2018-07-11T11:37:23.496Z,1004.1
2018-07-11T11:38:24.896Z,1004.2
2018-07-11T11:39:26.302Z,1004.2
2018-07-11T11:40:27.701Z,1004.1
2018-07-11T11:41:29.141Z,1004.1
2018-07-11T11:42:30.846Z,1004.1
2018-07-11T11:43:31.908Z,1004.2
2018-07-11T11:44:33.314Z,1004.1
2018-07-11T11:45:34.723Z,1004.2
2018-07-11T11:46:36.128Z,1004.1
2018-07-11T11:47:37.533Z,1004.3
2018-07-11T11:48:38.933Z,1004.2
2018-07-11T11:49:40.333Z,1004.3
2018-07-11T11:50:41.740Z,1004.2
2018-07-11T11:51:43.149Z,1004.3
2018-07-11T11:52:44.566Z,1004.2
2018-07-11T11:53:45.972Z,1004.2
2018-07-11T11:54:47.377Z,1004.2
2018-07-11T11:55:48.782Z,1004.3
2018-07-11T11:56:50.192Z,1004.2
2018-07-11T11:57:51.597Z,1004.3
2018-07-11T11:58:53.000Z,1004.2
2018-07-11T11:59:54.410Z,1004.2
2018-07-11T12:00:55.816Z,1004.2
2018-07-11T12:01:57.227Z,1004.2
2018-07-11T12:02:58.627Z,1004.2
2018-07-11T12:04:00.036Z,1004.3
2018-07-11T12:05:01.441Z,1004.2
2018-07-11T12:06:02.848Z,1004.3
2018-07-11T12:07:04.293Z,1004.3
2018-07-11T12:08:05.654Z,1004.3
2018-07-11T12:09:07.078Z,1004.3
2018-07-11T12:10:08.551Z,1004.2
2018-07-11T12:11:09.976Z,1004.2
2018-07-11T12:12:11.383Z,1004.1
2018-07-11T12:13:12.789Z,1004.1
2018-07-11T12:14:14.192Z,1004.1
2018-07-11T12:15:15.590Z,1004.1
2018-07-11T12:16:16.989Z,1004.1
2018-07-11T12:17:18.392Z,1004.2
2018-07-11T12:18:19.796Z,1004.1
2018-07-11T12:19:21.228Z,1004.3
2018-07-11T12:20:22.635Z,1004.2
2018-07-11T12:21:24.133Z,1004.1
2018-07-11T12:22:25.451Z,1004.1
2018-07-11T12:23:26.856Z,1004.2
2018-07-11T12:24:28.270Z,1004.1
2018-07-11T12:25:29.675Z,1004.2
2018-07-11T12:26:31.084Z,1004.0
2018-07-11T12:27:32.494Z,1004.0
2018-07-11T12:28:33.894Z,1004.0
2018-07-11T12:29:35.295Z,1004.0
2018-07-11T12:30:36.698Z,1004.0
2018-07-11T12:31:38.098Z,1004.0
2018-07-11T12:32:39.500Z,1004.1
2018-07-11T12:33:40.914Z,1004.0
2018-07-11T12:34:42.316Z,1004.1
2018-07-11T12:35:43.717Z,1004.0
2018-07-11T12:36:45.119Z,1004.2
2018-07-11T12:37:46.525Z,1004.2
2018-07-11T12:38:47.927Z,1004.1
2018-07-11T12:39:49.339Z,1004.1
2018-07-11T12:40:50.746Z,1004.0
2018-07-11T12:41:52.172Z,1004.0
2018-07-11T12:42:53.563Z,1003.9
2018-07-11T12:43:54.962Z,1003.9
2018-07-11T12:44:56.365Z,1003.8
2018-07-11T12:45:57.774Z,1004.0